Time;durP1;ratioP1;P1;durP2;ratioP2;P2;SDS_P1;SDS_P2;PMS_P1;PMS_P2;Temp;Humidity;BMP_temperature;BMP_pressure;BME280_temperature;BME280_humidity;BME280_pressure;Samples;Min_cycle;Max_cycle;Signal;HPM_P1;HPM_P2
2022/02/23 00:02:14;;;;;;;;;;;;;;;;;;2212846;67;1145;-70
2022/02/23 00:04:47;;;;;;;;;;;;;;;;;;2212148;59;2258;-71
2022/02/23 00:07:20;;;;;;;;;;;;;;;;;;2210203;59;1941;-70
2022/02/23 00:09:54;;;;;;;;;;;;;;;;;;2211753;59;1123;-71
2022/02/23 00:12:28;;;;;;;;;;;;;;;;;;2210577;59;2776;-71
2022/02/23 00:15:01;;;;;;;;;;;;;;;;;;2210994;59;1532;-71
2022/02/23 00:17:38;;;;;;;;;;;;;;;;;;2210972;59;1370;-71
2022/02/23 00:20:12;;;;;;;;;;;;;;;;;;2210918;59;3065;-71
2022/02/23 00:22:46;;;;;;;;;;;;;;;;;;2212546;59;1300;-71
2022/02/23 00:25:19;;;;;;;;;;;;;;;;;;2212933;67;1208;-70
2022/02/23 00:27:52;;;;;;;;;;;;;;;;;;2211547;67;1919;-71
2022/02/23 00:30:25;;;;;;;;;;;;;;;;;;2211724;67;1127;-71
2022/02/23 00:33:01;;;;;;;;;;;;;;;;;;2212060;67;1145;-71
2022/02/23 00:35:35;;;;;;;;;;;;;;;;;;2210245;59;1710;-70
2022/02/23 00:38:08;;;;;;;;;;;;;;;;;;2210560;59;1116;-71
2022/02/23 00:40:41;;;;;;;;;;;;;;;;;;2212527;59;1097;-70
2022/02/23 00:43:14;;;;;;;;;;;;;;;;;;2211655;59;1455;-71
2022/02/23 00:45:48;;;;;;;;;;;;;;;;;;2211677;67;1155;-71
2022/02/23 00:48:26;;;;;;;;;;;;;;;;;;2212483;59;1672;-71
2022/02/23 00:50:59;;;;;;;;;;;;;;;;;;2210036;59;1710;-71
2022/02/23 00:53:33;;;;;;;;;;;;;;;;;;2209680;59;1259;-71
2022/02/23 00:56:06;;;;;;;;;;;;;;;;;;2209753;59;1756;-71
2022/02/23 00:58:39;;;;;;;;;;;;;;;;;;2210525;67;1053;-71
2022/02/23 01:01:13;;;;;;;;;;;;;;;;;;2210883;67;1145;-71
2022/02/23 01:03:49;;;;;;;;;;;;;;;;;;2211760;67;1140;-71
2022/02/23 01:06:22;;;;;;;;;;;;;;;;;;2211461;67;1992;-71
2022/02/23 01:08:55;;;;;;;;;;;;;;;;;;2209074;67;1050;-71
2022/02/23 01:11:28;;;;;;;;;;;;;;;;;;2210459;59;1401;-71
2022/02/23 01:14:02;;;;;;;;;;;;;;;;;;2209710;59;1497;-70
2022/02/23 01:16:35;;;;;;;;;;;;;;;;;;2210328;59;1455;-71
2022/02/23 01:19:11;;;;;;;;;;;;;;;;;;2210949;59;1389;-71
2022/02/23 01:21:45;;;;;;;;;;;;;;;;;;2211791;67;1411;-71
2022/02/23 01:24:18;;;;;;;;;;;;;;;;;;2211510;59;1668;-71
2022/02/23 01:26:52;;;;;;;;;;;;;;;;;;2210378;67;1989;-71
2022/02/23 01:29:25;;;;;;;;;;;;;;;;;;2210247;67;1240;-71
2022/02/23 01:31:58;;;;;;;;;;;;;;;;;;2211364;67;1171;-70
2022/02/23 01:34:34;;;;;;;;;;;;;;;;;;2212288;59;1705;-71
2022/02/23 01:37:07;;;;;;;;;;;;;;;;;;2211057;67;1099;-70
2022/02/23 01:39:40;;;;;;;;;;;;;;;;;;2211306;59;1165;-70
2022/02/23 01:42:14;;;;;;;;;;;;;;;;;;2211711;59;1193;-70
2022/02/23 01:44:47;;;;;;;;;;;;;;;;;;2211818;67;1251;-70
2022/02/23 01:47:20;;;;;;;;;;;;;;;;;;2211790;59;1941;-70
2022/02/23 01:49:56;;;;;;;;;;;;;;;;;;2212745;59;1564;-70
2022/02/23 01:52:30;;;;;;;;;;;;;;;;;;2211966;67;1195;-70
2022/02/23 01:55:03;;;;;;;;;;;;;;;;;;2211419;59;1821;-71
2022/02/23 01:57:37;;;;;;;;;;;;;;;;;;2211007;67;1299;-71
2022/02/23 02:00:15;;;;;;;;;;;;;;;;;;2211482;67;1116;-71
2022/02/23 02:02:49;;;;;;;;;;;;;;;;;;2212345;67;1133;-71
2022/02/23 02:05:25;;;;;;;;;;;;;;;;;;2212799;67;1256;-71
2022/02/23 02:07:58;;;;;;;;;;;;;;;;;;2210558;67;1935;-71
2022/02/23 02:10:31;;;;;;;;;;;;;;;;;;2209919;59;1263;-71
2022/02/23 02:13:05;;;;;;;;;;;;;;;;;;2210438;59;1554;-71
2022/02/23 02:15:39;;;;;;;;;;;;;;;;;;2210278;59;1599;-71
2022/02/23 02:18:12;;;;;;;;;;;;;;;;;;2211187;59;1296;-71
2022/02/23 02:20:48;;;;;;;;;;;;;;;;;;2211761;67;1135;-71
2022/02/23 02:23:24;;;;;;;;;;;;;;;;;;2211465;59;1759;-70
2022/02/23 02:25:57;;;;;;;;;;;;;;;;;;2210259;67;1196;-71
2022/02/23 02:28:31;;;;;;;;;;;;;;;;;;2209325;67;1933;-71
2022/02/23 02:31:04;;;;;;;;;;;;;;;;;;2211513;67;1136;-71
2022/02/23 02:33:37;;;;;;;;;;;;;;;;;;2210531;67;1132;-71
2022/02/23 02:36:10;;;;;;;;;;;;;;;;;;2211521;59;1748;-71
2022/02/23 02:38:46;;;;;;;;;;;;;;;;;;2211745;67;1102;-71
2022/02/23 02:41:20;;;;;;;;;;;;;;;;;;2212487;67;1247;-71
2022/02/23 02:43:53;;;;;;;;;;;;;;;;;;2212126;59;1259;-71
2022/02/23 02:46:26;;;;;;;;;;;;;;;;;;2212784;67;1187;-71
2022/02/23 02:49:00;;;;;;;;;;;;;;;;;;2211978;59;1941;-70
2022/02/23 02:51:33;;;;;;;;;;;;;;;;;;2209958;59;1774;-71
2022/02/23 02:54:09;;;;;;;;;;;;;;;;;;2208946;59;1502;-71
2022/02/23 02:56:43;;;;;;;;;;;;;;;;;;2210174;59;2301;-71
2022/02/23 02:59:17;;;;;;;;;;;;;;;;;;2209522;67;1082;-71
2022/02/23 03:01:50;;;;;;;;;;;;;;;;;;2209571;59;1233;-70
2022/02/23 03:04:26;;;;;;;;;;;;;;;;;;2210870;67;1234;-71
2022/02/23 03:07:00;;;;;;;;;;;;;;;;;;2210735;67;1973;-70
2022/02/23 03:09:36;;;;;;;;;;;;;;;;;;2210561;67;1307;-70
2022/02/23 03:12:10;;;;;;;;;;;;;;;;;;2211553;59;1542;-71
2022/02/23 03:14:43;;;;;;;;;;;;;;;;;;2210136;59;1737;-71
2022/02/23 03:17:16;;;;;;;;;;;;;;;;;;2210377;59;1427;-71
2022/02/23 03:19:49;;;;;;;;;;;;;;;;;;2210678;67;1354;-71
2022/02/23 03:22:23;;;;;;;;;;;;;;;;;;2210799;67;1462;-71
2022/02/23 03:24:59;;;;;;;;;;;;;;;;;;2209614;67;1247;-71
2022/02/23 03:27:32;;;;;;;;;;;;;;;;;;2209672;67;2000;-71
2022/02/23 03:30:06;;;;;;;;;;;;;;;;;;2211186;67;1163;-71
2022/02/23 03:32:40;;;;;;;;;;;;;;;;;;2210210;67;1174;-71
2022/02/23 03:35:13;;;;;;;;;;;;;;;;;;2210833;59;1820;-71
2022/02/23 03:37:46;;;;;;;;;;;;;;;;;;2210541;67;1166;-71
2022/02/23 03:40:22;;;;;;;;;;;;;;;;;;2211185;67;1155;-71
2022/02/23 03:42:56;;;;;;;;;;;;;;;;;;2211184;59;1194;-71
2022/02/23 03:45:29;;;;;;;;;;;;;;;;;;2210549;67;1268;-71
2022/02/23 03:48:03;;;;;;;;;;;;;;;;;;2210678;59;1994;-70
2022/02/23 03:50:36;;;;;;;;;;;;;;;;;;2210456;67;1117;-70
2022/02/23 03:53:10;;;;;;;;;;;;;;;;;;2210342;67;1191;-70
2022/02/23 03:55:49;;;;;;;;;;;;;;;;;;2208966;59;2082;-71
2022/02/23 03:58:22;;;;;;;;;;;;;;;;;;2211095;67;1257;-70
2022/02/23 04:00:55;;;;;;;;;;;;;;;;;;2211383;67;1136;-71
2022/02/23 04:03:29;;;;;;;;;;;;;;;;;;2210639;67;1229;-70
2022/02/23 04:06:02;;;;;;;;;;;;;;;;;;2211611;67;1204;-71
2022/02/23 04:08:35;;;;;;;;;;;;;;;;;;2211317;59;1920;-71
2022/02/23 04:11:11;;;;;;;;;;;;;;;;;;2210836;59;1482;-71
2022/02/23 04:13:44;;;;;;;;;;;;;;;;;;2209322;59;1578;-70
2022/02/23 04:16:18;;;;;;;;;;;;;;;;;;2210500;59;1514;-71
2022/02/23 04:18:52;;;;;;;;;;;;;;;;;;2210899;67;1055;-71
2022/02/23 04:21:26;;;;;;;;;;;;;;;;;;2211297;59;1483;-71
2022/02/23 04:23:59;;;;;;;;;;;;;;;;;;2210505;59;1592;-70
2022/02/23 04:26:35;;;;;;;;;;;;;;;;;;2210345;67;1262;-71
2022/02/23 04:29:09;;;;;;;;;;;;;;;;;;2211539;67;1931;-71
2022/02/23 04:31:43;;;;;;;;;;;;;;;;;;2209141;59;1209;-71
2022/02/23 04:34:17;;;;;;;;;;;;;;;;;;2210677;59;1539;-71
2022/02/23 04:36:50;;;;;;;;;;;;;;;;;;2210891;59;1956;-70
2022/02/23 04:39:23;;;;;;;;;;;;;;;;;;2212297;67;1395;-70
2022/02/23 04:41:59;;;;;;;;;;;;;;;;;;2211384;67;1164;-70
2022/02/23 04:44:33;;;;;;;;;;;;;;;;;;2210591;59;1258;-71
2022/02/23 04:47:06;;;;;;;;;;;;;;;;;;2211762;59;1117;-71
2022/02/23 04:49:40;;;;;;;;;;;;;;;;;;2211333;59;2075;-71
2022/02/23 04:52:13;;;;;;;;;;;;;;;;;;2210158;59;1260;-71
2022/02/23 04:54:47;;;;;;;;;;;;;;;;;;2210243;59;1722;-70
2022/02/23 04:57:23;;;;;;;;;;;;;;;;;;2211851;67;1226;-71
2022/02/23 04:59:57;;;;;;;;;;;;;;;;;;2209829;59;1603;-71
2022/02/23 05:02:30;;;;;;;;;;;;;;;;;;2209876;67;1233;-71
2022/02/23 05:05:04;;;;;;;;;;;;;;;;;;2209346;67;1211;-70
2022/02/23 05:07:37;;;;;;;;;;;;;;;;;;2210769;67;1948;-71
2022/02/23 05:10:10;;;;;;;;;;;;;;;;;;2210035;59;1340;-71
2022/02/23 05:13:07;;;;;;;;;;;;;;;;;;2209278;59;1601;-71
2022/02/23 05:15:43;;;;;;;;;;;;;;;;;;2211025;59;1465;-71
2022/02/23 05:18:17;;;;;;;;;;;;;;;;;;2211570;59;1804;-70
2022/02/23 05:20:57;;;;;;;;;;;;;;;;;;2211901;67;1121;-71
2022/02/23 05:23:30;;;;;;;;;;;;;;;;;;2211219;59;1282;-70
2022/02/23 05:26:04;;;;;;;;;;;;;;;;;;2212139;67;1260;-70
2022/02/23 05:28:40;;;;;;;;;;;;;;;;;;2211567;67;1984;-70
2022/02/23 05:31:13;;;;;;;;;;;;;;;;;;2211752;67;1191;-70
2022/02/23 05:33:46;;;;;;;;;;;;;;;;;;2211554;67;1230;-70
2022/02/23 05:36:19;;;;;;;;;;;;;;;;;;2211245;59;1589;-70
2022/02/23 05:38:53;;;;;;;;;;;;;;;;;;2212257;67;1242;-70
2022/02/23 05:41:26;;;;;;;;;;;;;;;;;;2212854;67;1171;-70
2022/02/23 05:44:02;;;;;;;;;;;;;;;;;;2211365;59;1270;-70
2022/02/23 05:46:35;;;;;;;;;;;;;;;;;;2210773;67;1243;-70
2022/02/23 05:49:09;;;;;;;;;;;;;;;;;;2212496;59;1994;-70
2022/02/23 05:51:44;;;;;;;;;;;;;;;;;;2211361;67;1262;-70
2022/02/23 05:54:18;;;;;;;;;;;;;;;;;;2211522;67;1188;-71
2022/02/23 05:56:54;;;;;;;;;;;;;;;;;;2209816;59;1997;-71
2022/02/23 05:59:31;;;;;;;;;;;;;;;;;;2210191;67;1114;-70
2022/02/23 06:02:04;;;;;;;;;;;;;;;;;;2209772;59;1949;-70
2022/02/23 06:04:37;;;;;;;;;;;;;;;;;;2208794;59;1758;-70
2022/02/23 06:07:11;;;;;;;;;;;;;;;;;;2209945;67;1104;-70
2022/02/23 06:09:44;;;;;;;;;;;;;;;;;;2210039;59;1923;-70
2022/02/23 06:12:18;;;;;;;;;;;;;;;;;;2210486;59;1768;-70
2022/02/23 06:14:54;;;;;;;;;;;;;;;;;;2210240;59;1591;-70
2022/02/23 06:17:28;;;;;;;;;;;;;;;;;;2211820;59;1451;-70
2022/02/23 06:20:01;;;;;;;;;;;;;;;;;;2212784;67;1130;-70
2022/02/23 06:22:34;;;;;;;;;;;;;;;;;;2211241;59;1307;-70
2022/02/23 06:25:09;;;;;;;;;;;;;;;;;;2212175;67;1406;-70
2022/02/23 06:27:43;;;;;;;;;;;;;;;;;;2210853;59;1730;-70
2022/02/23 06:30:19;;;;;;;;;;;;;;;;;;2211380;59;1936;-70
2022/02/23 06:32:52;;;;;;;;;;;;;;;;;;2211469;67;1324;-71
2022/02/23 06:35:27;;;;;;;;;;;;;;;;;;2210520;59;1815;-70
2022/02/23 06:38:00;;;;;;;;;;;;;;;;;;2210808;67;1268;-70
2022/02/23 06:40:34;;;;;;;;;;;;;;;;;;2212886;67;1330;-70
2022/02/23 06:43:07;;;;;;;;;;;;;;;;;;2211497;59;1180;-70
2022/02/23 06:45:43;;;;;;;;;;;;;;;;;;2212021;67;1268;-70
2022/02/23 06:48:17;;;;;;;;;;;;;;;;;;2211520;59;1933;-71
2022/02/23 06:50:51;;;;;;;;;;;;;;;;;;2210331;59;1751;-70
2022/02/23 06:53:24;;;;;;;;;;;;;;;;;;2210023;67;1210;-70
2022/02/23 06:55:58;;;;;;;;;;;;;;;;;;2210415;59;1918;-70
2022/02/23 06:58:31;;;;;;;;;;;;;;;;;;2210103;67;1290;-70
2022/02/23 07:01:08;;;;;;;;;;;;;;;;;;2211672;67;1129;-70
2022/02/23 07:03:41;;;;;;;;;;;;;;;;;;2212086;67;1070;-70
2022/02/23 07:06:15;;;;;;;;;;;;;;;;;;2211042;67;1215;-70
2022/02/23 07:08:49;;;;;;;;;;;;;;;;;;2209452;59;2006;-70
2022/02/23 07:11:25;;;;;;;;;;;;;;;;;;2210381;59;1265;-70
2022/02/23 07:13:59;;;;;;;;;;;;;;;;;;2210104;59;1548;-70
2022/02/23 07:16:35;;;;;;;;;;;;;;;;;;2209944;53;3569;-69
2022/02/23 07:19:08;;;;;;;;;;;;;;;;;;2207966;59;1133;-70
2022/02/23 07:21:41;;;;;;;;;;;;;;;;;;2210262;59;1387;-70
2022/02/23 07:24:14;;;;;;;;;;;;;;;;;;2209741;59;1206;-70
2022/02/23 07:26:48;;;;;;;;;;;;;;;;;;2212670;67;1212;-70
2022/02/23 07:29:22;;;;;;;;;;;;;;;;;;2211757;59;1933;-69
2022/02/23 07:31:58;;;;;;;;;;;;;;;;;;2213596;67;1155;-69
2022/02/23 07:34:31;;;;;;;;;;;;;;;;;;2213423;59;1193;-69
2022/02/23 07:37:04;;;;;;;;;;;;;;;;;;2212103;59;1634;-69
2022/02/23 07:39:38;;;;;;;;;;;;;;;;;;2212166;59;1115;-70
2022/02/23 07:42:11;;;;;;;;;;;;;;;;;;2212710;59;1240;-70
2022/02/23 07:44:45;;;;;;;;;;;;;;;;;;2213118;67;1108;-70
2022/02/23 07:47:21;;;;;;;;;;;;;;;;;;2213185;67;1187;-70
2022/02/23 07:49:54;;;;;;;;;;;;;;;;;;2213478;59;1943;-70
2022/02/23 07:52:29;;;;;;;;;;;;;;;;;;2213281;67;1162;-69
2022/02/23 07:55:05;;;;;;;;;;;;;;;;;;2213096;67;1156;-69
2022/02/23 07:57:39;;;;;;;;;;;;;;;;;;2211722;59;2059;-70
2022/02/23 08:00:12;;;;;;;;;;;;;;;;;;2212685;67;1165;-69
2022/02/23 08:02:48;;;;;;;;;;;;;;;;;;2213378;67;1115;-70
2022/02/23 08:05:21;;;;;;;;;;;;;;;;;;2213301;67;1179;-70
2022/02/23 08:07:55;;;;;;;;;;;;;;;;;;2212990;67;1281;-70
2022/02/23 08:10:29;;;;;;;;;;;;;;;;;;2212929;59;1982;-70
2022/02/23 08:13:05;;;;;;;;;;;;;;;;;;2212304;59;1966;-70
2022/02/23 08:21:20;;;;;;;;;;;;;;;;;;2213223;67;1250;-69
2022/02/23 08:23:54;;;;;;;;;;;;;;;;;;2212015;59;1693;-70
2022/02/23 08:26:27;;;;;;;;;;;;;;;;;;2212446;59;1205;-70
2022/02/23 08:29:00;;;;;;;;;;;;;;;;;;2213478;67;1933;-71
2022/02/23 08:31:34;;;;;;;;;;;;;;;;;;2213564;59;1242;-70
2022/02/23 08:34:10;;;;;;;;;;;;;;;;;;2213458;67;1164;-70
2022/02/23 08:36:43;;;;;;;;;;;;;;;;;;2212982;59;1553;-69
2022/02/23 08:39:16;;;;;;;;;;;;;;;;;;2212419;67;1189;-70
2022/02/23 08:41:50;;;;;;;;;;;;;;;;;;2213387;67;1253;-70
2022/02/23 08:44:23;;;;;;;;;;;;;;;;;;2213213;59;1267;-70
2022/02/23 08:46:56;;;;;;;;;;;;;;;;;;2212848;59;1161;-69
2022/02/23 08:49:32;;;;;;;;;;;;;;;;;;2213494;59;1935;-70
2022/02/23 08:52:06;;;;;;;;;;;;;;;;;;2211995;59;1096;-69
2022/02/23 08:54:40;;;;;;;;;;;;;;;;;;2212097;59;1844;-69
2022/02/23 08:57:13;;;;;;;;;;;;;;;;;;2211965;59;1578;-70
2022/02/23 08:59:46;;;;;;;;;;;;;;;;;;2212321;67;1040;-69
2022/02/23 09:02:19;;;;;;;;;;;;;;;;;;2211199;59;1139;-69
2022/02/23 09:04:55;;;;;;;;;;;;;;;;;;2213028;59;1069;-70
2022/02/23 09:07:28;;;;;;;;;;;;;;;;;;2212726;67;1386;-70
2022/02/23 09:10:01;;;;;;;;;;;;;;;;;;2213729;67;1932;-70
2022/02/23 09:12:34;;;;;;;;;;;;;;;;;;2211834;59;1396;-69
2022/02/23 09:15:09;;;;;;;;;;;;;;;;;;2212599;59;1503;-70
2022/02/23 09:17:42;;;;;;;;;;;;;;;;;;2212901;59;1315;-69
2022/02/23 09:20:18;;;;;;;;;;;;;;;;;;2213952;67;1239;-69
2022/02/23 09:22:51;;;;;;;;;;;;;;;;;;2213608;67;1318;-69
2022/02/23 09:25:24;;;;;;;;;;;;;;;;;;2212493;67;1231;-69
2022/02/23 09:27:57;;;;;;;;;;;;;;;;;;2213961;59;1109;-70
2022/02/23 09:30:30;;;;;;;;;;;;;;;;;;2213721;67;1933;-70
2022/02/23 09:33:04;;;;;;;;;;;;;;;;;;2213781;67;1176;-70
2022/02/23 09:35:39;;;;;;;;;;;;;;;;;;2213740;59;1680;-70
2022/02/23 09:38:13;;;;;;;;;;;;;;;;;;2211143;67;1093;-70
2022/02/23 09:40:48;;;;;;;;;;;;;;;;;;2212448;67;1292;-69
2022/02/23 09:43:21;;;;;;;;;;;;;;;;;;2213069;59;1265;-70
2022/02/23 09:45:56;;;;;;;;;;;;;;;;;;2213260;67;1187;-70
2022/02/23 09:48:31;;;;;;;;;;;;;;;;;;2213449;59;1739;-70
2022/02/23 09:51:08;;;;;;;;;;;;;;;;;;2212854;67;1998;-70
2022/02/23 09:53:45;;;;;;;;;;;;;;;;;;2211906;67;1180;-70
2022/02/23 09:56:19;;;;;;;;;;;;;;;;;;2212432;59;1642;-70
2022/02/23 09:58:53;;;;;;;;;;;;;;;;;;2210839;67;1323;-69
2022/02/23 10:01:27;;;;;;;;;;;;;;;;;;2211380;67;1201;-70
2022/02/23 10:04:00;;;;;;;;;;;;;;;;;;2213742;67;1128;-70
2022/02/23 10:06:39;;;;;;;;;;;;;;;;;;2209927;67;1274;-69
2022/02/23 10:09:13;;;;;;;;;;;;;;;;;;2213235;59;1938;-70
2022/02/23 10:11:48;;;;;;;;;;;;;;;;;;2208943;59;2897;-70
2022/02/23 10:14:22;;;;;;;;;;;;;;;;;;2212293;60;1289;-70
2022/02/23 10:16:55;;;;;;;;;;;;;;;;;;2213009;59;1858;-70
2022/02/23 10:19:30;;;;;;;;;;;;;;;;;;2213225;67;1194;-70
2022/02/23 10:22:08;;;;;;;;;;;;;;;;;;2213094;67;1435;-70
2022/02/23 10:24:43;;;;;;;;;;;;;;;;;;2212880;67;1192;-70
2022/02/23 10:27:19;;;;;;;;;;;;;;;;;;2213210;67;1257;-70
2022/02/23 10:29:54;;;;;;;;;;;;;;;;;;2210283;67;1969;-70
2022/02/23 10:32:28;;;;;;;;;;;;;;;;;;2209058;67;2279;-70
2022/02/23 10:35:04;;;;;;;;;;;;;;;;;;2213384;67;1111;-70
2022/02/23 10:37:40;;;;;;;;;;;;;;;;;;2212117;59;1978;-70
2022/02/23 10:40:13;;;;;;;;;;;;;;;;;;2213026;67;1085;-70
2022/02/23 10:42:46;;;;;;;;;;;;;;;;;;2213363;59;1766;-70
2022/02/23 10:45:20;;;;;;;;;;;;;;;;;;2211676;67;1279;-70
2022/02/23 10:47:54;;;;;;;;;;;;;;;;;;2211851;67;1051;-70
2022/02/23 10:50:28;;;;;;;;;;;;;;;;;;2212344;59;1928;-70
2022/02/23 10:53:04;;;;;;;;;;;;;;;;;;2213119;59;1122;-70
2022/02/23 10:55:41;;;;;;;;;;;;;;;;;;2212240;59;1548;-70
2022/02/23 10:58:14;;;;;;;;;;;;;;;;;;2211938;59;2290;-70
2022/02/23 11:00:50;;;;;;;;;;;;;;;;;;2210922;59;1631;-70
2022/02/23 11:03:23;;;;;;;;;;;;;;;;;;2210397;59;1630;-70
2022/02/23 11:05:57;;;;;;;;;;;;;;;;;;2212987;59;1590;-70
2022/02/23 11:08:33;;;;;;;;;;;;;;;;;;2212094;59;1330;-70
2022/02/23 11:11:08;;;;;;;;;;;;;;;;;;2212888;59;1932;-70
2022/02/23 11:13:41;;;;;;;;;;;;;;;;;;2212297;59;1459;-70
2022/02/23 11:16:14;;;;;;;;;;;;;;;;;;2212584;59;2495;-70
2022/02/23 11:18:50;;;;;;;;;;;;;;;;;;2212738;59;1438;-70
2022/02/23 11:21:24;;;;;;;;;;;;;;;;;;2212479;59;1672;-70
2022/02/23 11:24:02;;;;;;;;;;;;;;;;;;2211603;59;1212;-70
2022/02/23 11:26:35;;;;;;;;;;;;;;;;;;2210879;59;1147;-70
2022/02/23 11:29:12;;;;;;;;;;;;;;;;;;2212297;67;1228;-70
2022/02/23 11:31:50;;;;;;;;;;;;;;;;;;2212672;59;1936;-71
2022/02/23 11:34:26;;;;;;;;;;;;;;;;;;2212902;59;1117;-70
2022/02/23 11:37:00;;;;;;;;;;;;;;;;;;2211395;59;1501;-70
2022/02/23 11:39:38;;;;;;;;;;;;;;;;;;2212133;59;1314;-70
2022/02/23 11:42:12;;;;;;;;;;;;;;;;;;2213250;59;1157;-70
2022/02/23 11:44:49;;;;;;;;;;;;;;;;;;2212794;67;1168;-70
2022/02/23 11:47:24;;;;;;;;;;;;;;;;;;2213258;67;1283;-70
2022/02/23 11:49:58;;;;;;;;;;;;;;;;;;2212899;59;1985;-70
2022/02/23 11:52:33;;;;;;;;;;;;;;;;;;2213485;67;1113;-70
2022/02/23 11:55:15;;;;;;;;;;;;;;;;;;2208222;59;3100;-70
2022/02/23 11:57:50;;;;;;;;;;;;;;;;;;2213267;59;1501;-71
2022/02/23 12:00:46;;;;;;;;;;;;;;;;;;2213983;59;1240;-71
2022/02/23 12:03:26;;;;;;;;;;;;;;;;;;2212690;67;2425;-70
2022/02/23 12:06:00;;;;;;;;;;;;;;;;;;2212814;59;1585;-70
2022/02/23 12:08:43;;;;;;;;;;;;;;;;;;2212981;67;1212;-70
2022/02/23 12:11:35;;;;;;;;;;;;;;;;;;2212437;59;1937;-71
2022/02/23 12:14:11;;;;;;;;;;;;;;;;;;2212482;59;1747;-70
2022/02/23 12:16:48;;;;;;;;;;;;;;;;;;2213647;59;1662;-70
2022/02/23 12:19:41;;;;;;;;;;;;;;;;;;2213457;59;1128;-70
2022/02/23 12:22:14;;;;;;;;;;;;;;;;;;2213138;59;1332;-70
2022/02/23 12:24:48;;;;;;;;;;;;;;;;;;2213141;59;1208;-70
2022/02/23 12:27:30;;;;;;;;;;;;;;;;;;2213504;59;1265;-70
2022/02/23 12:30:06;;;;;;;;;;;;;;;;;;2212919;67;1953;-71
2022/02/23 12:32:40;;;;;;;;;;;;;;;;;;2213812;59;1253;-71
2022/02/23 12:35:14;;;;;;;;;;;;;;;;;;2208521;59;1657;-70
2022/02/23 12:37:47;;;;;;;;;;;;;;;;;;2213497;59;1026;-70
2022/02/23 12:40:20;;;;;;;;;;;;;;;;;;2213594;67;1173;-70
2022/02/23 12:43:05;;;;;;;;;;;;;;;;;;2214494;59;1779;-70
2022/02/23 12:45:50;;;;;;;;;;;;;;;;;;2213316;59;1809;-70
2022/02/23 12:48:30;;;;;;;;;;;;;;;;;;2212169;59;1595;-70
2022/02/23 12:51:04;;;;;;;;;;;;;;;;;;2212172;59;1939;-70
2022/02/23 12:53:38;;;;;;;;;;;;;;;;;;2211295;67;1516;-70
2022/02/23 12:56:18;;;;;;;;;;;;;;;;;;2213364;59;1574;-70
2022/02/23 12:58:53;;;;;;;;;;;;;;;;;;2213920;67;1291;-70
2022/02/23 13:01:30;;;;;;;;;;;;;;;;;;2212269;59;1230;-70
2022/02/23 13:04:04;;;;;;;;;;;;;;;;;;2213972;67;1083;-70
2022/02/23 13:06:38;;;;;;;;;;;;;;;;;;2212519;59;1409;-70
2022/02/23 13:09:12;;;;;;;;;;;;;;;;;;2213233;67;1117;-70
2022/02/23 13:11:47;;;;;;;;;;;;;;;;;;2212465;59;2062;-70
2022/02/23 13:14:21;;;;;;;;;;;;;;;;;;2211937;67;1254;-70
2022/02/23 13:16:58;;;;;;;;;;;;;;;;;;2211065;53;3475;-71
2022/02/23 13:19:32;;;;;;;;;;;;;;;;;;2207758;59;1170;-70
2022/02/23 13:22:06;;;;;;;;;;;;;;;;;;2204265;59;1993;-70
2022/02/23 13:24:40;;;;;;;;;;;;;;;;;;2208346;67;1187;-70
2022/02/23 13:27:14;;;;;;;;;;;;;;;;;;2209106;67;1236;-71
2022/02/23 13:29:48;;;;;;;;;;;;;;;;;;2204748;59;1415;-70
2022/02/23 13:32:28;;;;;;;;;;;;;;;;;;2209468;59;1225;-70
2022/02/23 13:35:02;;;;;;;;;;;;;;;;;;2208800;59;1098;-70
2022/02/23 13:37:36;;;;;;;;;;;;;;;;;;2208467;59;1725;-71
2022/02/23 13:40:12;;;;;;;;;;;;;;;;;;2208569;60;1101;-70
2022/02/23 13:42:46;;;;;;;;;;;;;;;;;;2208109;59;1930;-70
2022/02/23 13:45:20;;;;;;;;;;;;;;;;;;2208631;59;1180;-70
2022/02/23 13:47:58;;;;;;;;;;;;;;;;;;2210021;67;1081;-70
2022/02/23 13:50:33;;;;;;;;;;;;;;;;;;2208408;59;1175;-70
2022/02/23 13:53:08;;;;;;;;;;;;;;;;;;2208576;59;1135;-70
2022/02/23 13:55:41;;;;;;;;;;;;;;;;;;2208236;59;1821;-70
2022/02/23 13:58:16;;;;;;;;;;;;;;;;;;2207181;67;1210;-70
2022/02/23 14:00:50;;;;;;;;;;;;;;;;;;2208733;67;1988;-71
2022/02/23 14:03:32;;;;;;;;;;;;;;;;;;2204942;59;2829;-70
2022/02/23 14:06:07;;;;;;;;;;;;;;;;;;2209124;59;1587;-70
2022/02/23 14:08:41;;;;;;;;;;;;;;;;;;2209335;67;1148;-70
2022/02/23 14:11:16;;;;;;;;;;;;;;;;;;2209633;59;1453;-70
2022/02/23 14:13:52;;;;;;;;;;;;;;;;;;2208005;59;1651;-70
2022/02/23 14:16:33;;;;;;;;;;;;;;;;;;2208278;59;1653;-70
2022/02/23 14:19:18;;;;;;;;;;;;;;;;;;2207776;59;1223;-70
2022/02/23 14:21:52;;;;;;;;;;;;;;;;;;2209398;59;1995;-70
2022/02/23 14:24:28;;;;;;;;;;;;;;;;;;2209189;59;1480;-70
2022/02/23 14:27:03;;;;;;;;;;;;;;;;;;2207796;59;1195;-70
2022/02/23 14:29:37;;;;;;;;;;;;;;;;;;2205479;67;1323;-70
2022/02/23 14:32:17;;;;;;;;;;;;;;;;;;2209515;59;1109;-70
2022/02/23 14:34:57;;;;;;;;;;;;;;;;;;2208693;59;1131;-70
2022/02/23 14:37:30;;;;;;;;;;;;;;;;;;2207362;59;1842;-70
2022/02/23 14:40:05;;;;;;;;;;;;;;;;;;2208937;67;1210;-70
2022/02/23 14:42:40;;;;;;;;;;;;;;;;;;2209434;59;1990;-69
2022/02/23 14:45:14;;;;;;;;;;;;;;;;;;2209108;67;1183;-69
2022/02/23 14:47:49;;;;;;;;;;;;;;;;;;2208749;67;1250;-70
2022/02/23 14:50:27;;;;;;;;;;;;;;;;;;2204803;59;2078;-69
2022/02/23 14:53:01;;;;;;;;;;;;;;;;;;2208860;59;1268;-69
2022/02/23 14:55:34;;;;;;;;;;;;;;;;;;2208710;59;1481;-69
2022/02/23 14:58:07;;;;;;;;;;;;;;;;;;2207765;59;1125;-69
2022/02/23 15:00:40;;;;;;;;;;;;;;;;;;2208909;59;1172;-69
2022/02/23 15:03:13;;;;;;;;;;;;;;;;;;2209246;67;1985;-69
2022/02/23 15:05:49;;;;;;;;;;;;;;;;;;2204318;67;1226;-69
2022/02/23 15:08:23;;;;;;;;;;;;;;;;;;2209101;59;1336;-68
2022/02/23 15:10:56;;;;;;;;;;;;;;;;;;2207596;59;1341;-69
2022/02/23 15:13:29;;;;;;;;;;;;;;;;;;2208447;59;1549;-69
2022/02/23 15:16:03;;;;;;;;;;;;;;;;;;2207853;59;1957;-69
2022/02/23 15:18:36;;;;;;;;;;;;;;;;;;2208369;59;1120;-69
2022/02/23 15:21:12;;;;;;;;;;;;;;;;;;2207421;67;1988;-69
2022/02/23 15:23:45;;;;;;;;;;;;;;;;;;2207947;59;1568;-69
2022/02/23 15:26:18;;;;;;;;;;;;;;;;;;2208845;67;1282;-69
2022/02/23 15:28:51;;;;;;;;;;;;;;;;;;2208715;67;1088;-71
2022/02/23 15:31:26;;;;;;;;;;;;;;;;;;2205514;67;1928;-71
2022/02/23 15:33:59;;;;;;;;;;;;;;;;;;2207853;59;1663;-71
2022/02/23 15:36:35;;;;;;;;;;;;;;;;;;2207308;59;2164;-71
2022/02/23 15:39:09;;;;;;;;;;;;;;;;;;2207495;59;1260;-71
2022/02/23 15:41:43;;;;;;;;;;;;;;;;;;2206740;59;1941;-71
2022/02/23 15:44:17;;;;;;;;;;;;;;;;;;2206954;59;1143;-71
2022/02/23 15:46:51;;;;;;;;;;;;;;;;;;2208385;59;1243;-72
2022/02/23 15:49:24;;;;;;;;;;;;;;;;;;2208653;59;1512;-71
2022/02/23 15:52:00;;;;;;;;;;;;;;;;;;2208028;59;1174;-71
2022/02/23 15:54:33;;;;;;;;;;;;;;;;;;2208184;59;1216;-71
2022/02/23 15:57:06;;;;;;;;;;;;;;;;;;2208268;59;1913;-71
2022/02/23 15:59:39;;;;;;;;;;;;;;;;;;2207540;67;1145;-71
2022/02/23 16:02:13;;;;;;;;;;;;;;;;;;2209091;59;1933;-71
2022/02/23 16:04:47;;;;;;;;;;;;;;;;;;2207611;59;1191;-71
2022/02/23 16:07:22;;;;;;;;;;;;;;;;;;2207387;59;1190;-71
2022/02/23 16:09:56;;;;;;;;;;;;;;;;;;2208772;59;1281;-71
2022/02/23 16:12:29;;;;;;;;;;;;;;;;;;2207643;59;1690;-71
2022/02/23 16:15:02;;;;;;;;;;;;;;;;;;2205493;59;1750;-71
2022/02/23 16:17:35;;;;;;;;;;;;;;;;;;2207922;59;2067;-71
2022/02/23 16:20:09;;;;;;;;;;;;;;;;;;2209138;67;1161;-70
2022/02/23 16:22:45;;;;;;;;;;;;;;;;;;2208473;59;1990;-71
2022/02/23 16:25:19;;;;;;;;;;;;;;;;;;2208265;59;1372;-71
2022/02/23 16:27:52;;;;;;;;;;;;;;;;;;2208128;67;1104;-71
2022/02/23 16:30:25;;;;;;;;;;;;;;;;;;2204461;59;1978;-71
2022/02/23 16:32:58;;;;;;;;;;;;;;;;;;2208448;67;1070;-71
2022/02/23 16:35:31;;;;;;;;;;;;;;;;;;2208328;59;1842;-71
2022/02/23 16:38:08;;;;;;;;;;;;;;;;;;2208493;59;1308;-71
2022/02/23 16:40:41;;;;;;;;;;;;;;;;;;2207984;59;1222;-71
2022/02/23 16:43:16;;;;;;;;;;;;;;;;;;2208896;64;1929;-71
2022/02/23 16:45:49;;;;;;;;;;;;;;;;;;2207663;67;1249;-71
2022/02/23 16:48:22;;;;;;;;;;;;;;;;;;2208045;59;1626;-71
2022/02/23 16:50:56;;;;;;;;;;;;;;;;;;2205624;67;1209;-71
2022/02/23 16:53:32;;;;;;;;;;;;;;;;;;2205079;59;1514;-71
2022/02/23 16:56:05;;;;;;;;;;;;;;;;;;2208628;59;1687;-71
2022/02/23 16:58:38;;;;;;;;;;;;;;;;;;2208293;67;1085;-71
2022/02/23 17:01:11;;;;;;;;;;;;;;;;;;2208689;67;1123;-71
2022/02/23 17:03:44;;;;;;;;;;;;;;;;;;2208332;67;1927;-71
2022/02/23 17:06:17;;;;;;;;;;;;;;;;;;2209102;67;1235;-70
2022/02/23 17:08:53;;;;;;;;;;;;;;;;;;2208528;59;1105;-71
2022/02/23 17:11:26;;;;;;;;;;;;;;;;;;2208071;59;1233;-71
2022/02/23 17:14:00;;;;;;;;;;;;;;;;;;2209094;59;1615;-70
2022/02/23 17:16:33;;;;;;;;;;;;;;;;;;2208740;59;2039;-70
2022/02/23 17:19:06;;;;;;;;;;;;;;;;;;2208785;59;1176;-71
2022/02/23 17:21:39;;;;;;;;;;;;;;;;;;2208733;59;1928;-72
2022/02/23 17:24:15;;;;;;;;;;;;;;;;;;2209331;59;1768;-71
2022/02/23 17:26:51;;;;;;;;;;;;;;;;;;2205957;67;1372;-70
2022/02/23 17:29:24;;;;;;;;;;;;;;;;;;2208370;59;2043;-71
2022/02/23 17:31:57;;;;;;;;;;;;;;;;;;2209108;67;1088;-70
2022/02/23 17:34:31;;;;;;;;;;;;;;;;;;2208579;67;1145;-70
2022/02/23 17:37:04;;;;;;;;;;;;;;;;;;2206270;59;1775;-71
2022/02/23 17:39:40;;;;;;;;;;;;;;;;;;2208491;59;1657;-71
2022/02/23 17:42:13;;;;;;;;;;;;;;;;;;2208103;59;1939;-70
2022/02/23 17:44:46;;;;;;;;;;;;;;;;;;2208671;59;1284;-71
2022/02/23 17:47:20;;;;;;;;;;;;;;;;;;2209640;67;1290;-71
2022/02/23 17:49:53;;;;;;;;;;;;;;;;;;2208962;59;1548;-70
2022/02/23 17:52:28;;;;;;;;;;;;;;;;;;2209143;67;1320;-71
2022/02/23 17:55:08;;;;;;;;;;;;;;;;;;2205570;59;1522;-70
2022/02/23 17:57:41;;;;;;;;;;;;;;;;;;2207969;59;1871;-70
2022/02/23 18:00:15;;;;;;;;;;;;;;;;;;2207992;59;1223;-71